sensor_id;sensor_type;location;lat;lon;timestamp;P1;durP1;ratioP1;P2;durP2;ratioP2
65717;SDS011;52445;52.466;-1.016;2022-07-04T00:01:42;4.00;;;1.83;;
65717;SDS011;52445;52.466;-1.016;2022-07-04T00:04:09;3.83;;;1.27;;
65717;SDS011;52445;52.466;-1.016;2022-07-04T00:06:36;3.72;;;1.52;;
65717;SDS011;52445;52.466;-1.016;2022-07-04T00:09:02;3.05;;;1.20;;
65717;SDS011;52445;52.466;-1.016;2022-07-04T00:11:29;3.13;;;1.30;;
65717;SDS011;52445;52.466;-1.016;2022-07-04T00:13:56;2.92;;;1.20;;
65717;SDS011;52445;52.466;-1.016;2022-07-04T00:16:23;5.53;;;1.52;;
65717;SDS011;52445;52.466;-1.016;2022-07-04T00:18:49;2.50;;;1.08;;
65717;SDS011;52445;52.466;-1.016;2022-07-04T00:21:16;4.03;;;1.25;;
65717;SDS011;52445;52.466;-1.016;2022-07-04T00:23:43;2.90;;;0.95;;
65717;SDS011;52445;52.466;-1.016;2022-07-04T00:26:09;3.83;;;1.17;;
65717;SDS011;52445;52.466;-1.016;2022-07-04T00:28:36;4.55;;;1.40;;
65717;SDS011;52445;52.466;-1.016;2022-07-04T00:31:03;3.78;;;1.42;;
65717;SDS011;52445;52.466;-1.016;2022-07-04T00:33:29;1.73;;;1.02;;
65717;SDS011;52445;52.466;-1.016;2022-07-04T00:35:56;2.67;;;1.42;;
65717;SDS011;52445;52.466;-1.016;2022-07-04T00:38:23;4.93;;;1.27;;
65717;SDS011;52445;52.466;-1.016;2022-07-04T00:40:49;2.85;;;1.52;;
65717;SDS011;52445;52.466;-1.016;2022-07-04T00:43:25;4.68;;;1.77;;
65717;SDS011;52445;52.466;-1.016;2022-07-04T00:48:19;4.70;;;1.65;;
65717;SDS011;52445;52.466;-1.016;2022-07-04T00:50:46;2.47;;;1.15;;
65717;SDS011;52445;52.466;-1.016;2022-07-04T00:53:14;3.90;;;1.40;;
65717;SDS011;52445;52.466;-1.016;2022-07-04T00:55:41;6.65;;;2.30;;
65717;SDS011;52445;52.466;-1.016;2022-07-04T00:58:08;2.10;;;1.20;;
65717;SDS011;52445;52.466;-1.016;2022-07-04T01:00:35;4.38;;;1.65;;
65717;SDS011;52445;52.466;-1.016;2022-07-04T01:03:02;6.55;;;1.55;;
65717;SDS011;52445;52.466;-1.016;2022-07-04T01:05:28;3.80;;;1.90;;
65717;SDS011;52445;52.466;-1.016;2022-07-04T01:07:55;4.18;;;1.95;;
65717;SDS011;52445;52.466;-1.016;2022-07-04T01:10:23;3.75;;;1.45;;
65717;SDS011;52445;52.466;-1.016;2022-07-04T01:12:49;5.10;;;1.50;;
65717;SDS011;52445;52.466;-1.016;2022-07-04T01:15:16;4.43;;;1.98;;
65717;SDS011;52445;52.466;-1.016;2022-07-04T01:17:43;5.60;;;2.28;;
65717;SDS011;52445;52.466;-1.016;2022-07-04T01:20:10;5.25;;;2.13;;
65717;SDS011;52445;52.466;-1.016;2022-07-04T01:22:38;5.72;;;2.15;;
65717;SDS011;52445;52.466;-1.016;2022-07-04T01:25:05;4.75;;;2.20;;
65717;SDS011;52445;52.466;-1.016;2022-07-04T01:27:32;7.68;;;2.47;;
65717;SDS011;52445;52.466;-1.016;2022-07-04T01:29:59;7.20;;;2.63;;
65717;SDS011;52445;52.466;-1.016;2022-07-04T01:32:25;9.25;;;3.88;;
65717;SDS011;52445;52.466;-1.016;2022-07-04T01:34:52;5.53;;;2.20;;
65717;SDS011;52445;52.466;-1.016;2022-07-04T01:37:18;4.28;;;2.28;;
65717;SDS011;52445;52.466;-1.016;2022-07-04T01:39:45;5.85;;;2.63;;
65717;SDS011;52445;52.466;-1.016;2022-07-04T01:42:12;6.50;;;2.60;;
65717;SDS011;52445;52.466;-1.016;2022-07-04T01:44:38;4.00;;;2.10;;
65717;SDS011;52445;52.466;-1.016;2022-07-04T01:47:05;6.03;;;1.83;;
65717;SDS011;52445;52.466;-1.016;2022-07-04T01:49:31;4.75;;;2.63;;
65717;SDS011;52445;52.466;-1.016;2022-07-04T01:51:58;6.55;;;2.47;;
65717;SDS011;52445;52.466;-1.016;2022-07-04T01:54:25;5.47;;;2.65;;
65717;SDS011;52445;52.466;-1.016;2022-07-04T01:56:52;5.53;;;2.80;;
65717;SDS011;52445;52.466;-1.016;2022-07-04T01:59:19;7.32;;;2.70;;
65717;SDS011;52445;52.466;-1.016;2022-07-04T02:02:06;6.68;;;2.72;;
65717;SDS011;52445;52.466;-1.016;2022-07-04T02:04:32;7.57;;;2.63;;
65717;SDS011;52445;52.466;-1.016;2022-07-04T02:06:59;5.30;;;3.00;;
65717;SDS011;52445;52.466;-1.016;2022-07-04T02:09:26;5.95;;;2.72;;
65717;SDS011;52445;52.466;-1.016;2022-07-04T02:11:54;5.25;;;2.20;;
65717;SDS011;52445;52.466;-1.016;2022-07-04T02:14:40;5.50;;;2.72;;
65717;SDS011;52445;52.466;-1.016;2022-07-04T02:17:08;3.38;;;1.92;;
65717;SDS011;52445;52.466;-1.016;2022-07-04T02:19:36;4.80;;;2.63;;
65717;SDS011;52445;52.466;-1.016;2022-07-04T02:22:03;4.07;;;1.90;;
65717;SDS011;52445;52.466;-1.016;2022-07-04T02:24:30;3.67;;;2.08;;
65717;SDS011;52445;52.466;-1.016;2022-07-04T02:26:56;4.13;;;1.92;;
65717;SDS011;52445;52.466;-1.016;2022-07-04T02:29:23;3.13;;;1.90;;
65717;SDS011;52445;52.466;-1.016;2022-07-04T02:31:50;5.78;;;1.85;;
65717;SDS011;52445;52.466;-1.016;2022-07-04T02:34:17;2.35;;;1.25;;
65717;SDS011;52445;52.466;-1.016;2022-07-04T02:36:43;3.53;;;1.83;;
65717;SDS011;52445;52.466;-1.016;2022-07-04T02:39:10;3.25;;;1.20;;
65717;SDS011;52445;52.466;-1.016;2022-07-04T02:41:37;4.60;;;2.03;;
65717;SDS011;52445;52.466;-1.016;2022-07-04T02:44:04;4.80;;;1.90;;
65717;SDS011;52445;52.466;-1.016;2022-07-04T02:46:30;4.13;;;1.65;;
65717;SDS011;52445;52.466;-1.016;2022-07-04T02:48:59;5.15;;;1.92;;
65717;SDS011;52445;52.466;-1.016;2022-07-04T02:51:26;4.22;;;1.48;;
65717;SDS011;52445;52.466;-1.016;2022-07-04T02:53:53;4.18;;;1.88;;
65717;SDS011;52445;52.466;-1.016;2022-07-04T02:56:21;3.60;;;1.80;;
65717;SDS011;52445;52.466;-1.016;2022-07-04T02:58:48;5.00;;;1.35;;
65717;SDS011;52445;52.466;-1.016;2022-07-04T03:01:15;3.42;;;1.63;;
65717;SDS011;52445;52.466;-1.016;2022-07-04T03:03:42;3.58;;;1.45;;
65717;SDS011;52445;52.466;-1.016;2022-07-04T03:06:09;4.85;;;1.80;;
65717;SDS011;52445;52.466;-1.016;2022-07-04T03:08:36;3.83;;;1.40;;
65717;SDS011;52445;52.466;-1.016;2022-07-04T03:11:03;3.65;;;1.60;;
65717;SDS011;52445;52.466;-1.016;2022-07-04T03:13:31;3.70;;;1.63;;
65717;SDS011;52445;52.466;-1.016;2022-07-04T03:15:58;4.68;;;1.70;;
65717;SDS011;52445;52.466;-1.016;2022-07-04T03:18:24;6.45;;;1.83;;
65717;SDS011;52445;52.466;-1.016;2022-07-04T03:20:51;2.92;;;1.60;;
65717;SDS011;52445;52.466;-1.016;2022-07-04T03:23:17;4.05;;;1.13;;
65717;SDS011;52445;52.466;-1.016;2022-07-04T03:25:44;2.40;;;1.55;;
65717;SDS011;52445;52.466;-1.016;2022-07-04T03:28:11;3.80;;;1.85;;
65717;SDS011;52445;52.466;-1.016;2022-07-04T03:30:38;5.22;;;1.65;;
65717;SDS011;52445;52.466;-1.016;2022-07-04T03:33:05;3.80;;;1.60;;
65717;SDS011;52445;52.466;-1.016;2022-07-04T03:35:31;3.92;;;1.50;;
65717;SDS011;52445;52.466;-1.016;2022-07-04T03:37:58;2.40;;;1.20;;
65717;SDS011;52445;52.466;-1.016;2022-07-04T03:40:25;1.88;;;1.10;;
65717;SDS011;52445;52.466;-1.016;2022-07-04T03:42:54;3.53;;;1.20;;
65717;SDS011;52445;52.466;-1.016;2022-07-04T03:45:21;1.92;;;1.25;;
65717;SDS011;52445;52.466;-1.016;2022-07-04T03:47:47;2.95;;;1.50;;
65717;SDS011;52445;52.466;-1.016;2022-07-04T03:50:14;2.78;;;1.73;;
65717;SDS011;52445;52.466;-1.016;2022-07-04T03:52:41;2.53;;;1.25;;
65717;SDS011;52445;52.466;-1.016;2022-07-04T03:55:07;3.03;;;1.40;;
65717;SDS011;52445;52.466;-1.016;2022-07-04T03:57:34;5.68;;;1.42;;
65717;SDS011;52445;52.466;-1.016;2022-07-04T04:00:02;3.78;;;1.30;;
65717;SDS011;52445;52.466;-1.016;2022-07-04T04:02:30;2.10;;;1.20;;
65717;SDS011;52445;52.466;-1.016;2022-07-04T04:04:56;3.85;;;1.25;;
65717;SDS011;52445;52.466;-1.016;2022-07-04T04:07:43;4.88;;;1.65;;
65717;SDS011;52445;52.466;-1.016;2022-07-04T04:10:11;4.05;;;1.58;;
65717;SDS011;52445;52.466;-1.016;2022-07-04T04:12:37;1.85;;;0.85;;
65717;SDS011;52445;52.466;-1.016;2022-07-04T04:15:04;1.80;;;1.30;;
65717;SDS011;52445;52.466;-1.016;2022-07-04T04:17:31;4.45;;;1.10;;
65717;SDS011;52445;52.466;-1.016;2022-07-04T04:19:57;4.50;;;1.63;;
65717;SDS011;52445;52.466;-1.016;2022-07-04T04:22:24;2.33;;;1.20;;
65717;SDS011;52445;52.466;-1.016;2022-07-04T04:24:51;2.88;;;1.15;;
65717;SDS011;52445;52.466;-1.016;2022-07-04T04:27:17;3.85;;;1.27;;
65717;SDS011;52445;52.466;-1.016;2022-07-04T04:29:44;5.57;;;1.42;;
65717;SDS011;52445;52.466;-1.016;2022-07-04T04:32:10;1.50;;;0.75;;
65717;SDS011;52445;52.466;-1.016;2022-07-04T04:34:37;6.35;;;1.10;;
65717;SDS011;52445;52.466;-1.016;2022-07-04T04:37:04;1.55;;;0.90;;
65717;SDS011;52445;52.466;-1.016;2022-07-04T04:39:30;3.10;;;0.93;;
65717;SDS011;52445;52.466;-1.016;2022-07-04T04:41:57;2.20;;;1.02;;
65717;SDS011;52445;52.466;-1.016;2022-07-04T04:44:23;2.03;;;1.30;;
65717;SDS011;52445;52.466;-1.016;2022-07-04T04:46:50;3.17;;;1.15;;
65717;SDS011;52445;52.466;-1.016;2022-07-04T04:49:17;1.77;;;1.05;;
65717;SDS011;52445;52.466;-1.016;2022-07-04T04:51:44;2.38;;;1.08;;
65717;SDS011;52445;52.466;-1.016;2022-07-04T04:54:11;1.73;;;0.80;;
65717;SDS011;52445;52.466;-1.016;2022-07-04T04:56:38;3.20;;;1.00;;
65717;SDS011;52445;52.466;-1.016;2022-07-04T04:59:04;1.85;;;0.77;;
65717;SDS011;52445;52.466;-1.016;2022-07-04T05:01:31;3.75;;;0.90;;
65717;SDS011;52445;52.466;-1.016;2022-07-04T05:04:13;4.43;;;0.95;;
65717;SDS011;52445;52.466;-1.016;2022-07-04T05:06:41;2.80;;;1.08;;
65717;SDS011;52445;52.466;-1.016;2022-07-04T05:09:07;3.50;;;0.88;;
65717;SDS011;52445;52.466;-1.016;2022-07-04T05:11:34;2.67;;;0.63;;
65717;SDS011;52445;52.466;-1.016;2022-07-04T05:14:01;1.73;;;1.05;;
65717;SDS011;52445;52.466;-1.016;2022-07-04T05:16:28;1.60;;;0.70;;
65717;SDS011;52445;52.466;-1.016;2022-07-04T05:18:55;2.50;;;1.13;;
65717;SDS011;52445;52.466;-1.016;2022-07-04T05:21:21;1.38;;;0.85;;
65717;SDS011;52445;52.466;-1.016;2022-07-04T05:23:48;2.88;;;0.90;;
65717;SDS011;52445;52.466;-1.016;2022-07-04T05:26:14;2.83;;;0.93;;
65717;SDS011;52445;52.466;-1.016;2022-07-04T05:28:41;3.65;;;1.30;;
65717;SDS011;52445;52.466;-1.016;2022-07-04T05:31:08;3.42;;;1.00;;
65717;SDS011;52445;52.466;-1.016;2022-07-04T05:33:34;1.80;;;1.10;;
65717;SDS011;52445;52.466;-1.016;2022-07-04T05:36:01;1.50;;;0.82;;
65717;SDS011;52445;52.466;-1.016;2022-07-04T05:38:27;4.45;;;1.35;;
65717;SDS011;52445;52.466;-1.016;2022-07-04T05:40:54;2.33;;;1.15;;
65717;SDS011;52445;52.466;-1.016;2022-07-04T05:43:21;3.38;;;0.70;;
65717;SDS011;52445;52.466;-1.016;2022-07-04T05:45:47;1.88;;;0.75;;
65717;SDS011;52445;52.466;-1.016;2022-07-04T05:48:15;2.80;;;1.10;;
65717;SDS011;52445;52.466;-1.016;2022-07-04T05:50:41;2.67;;;0.73;;
65717;SDS011;52445;52.466;-1.016;2022-07-04T05:53:08;2.35;;;1.02;;
65717;SDS011;52445;52.466;-1.016;2022-07-04T05:55:35;2.70;;;0.90;;
65717;SDS011;52445;52.466;-1.016;2022-07-04T05:58:01;3.55;;;0.77;;
65717;SDS011;52445;52.466;-1.016;2022-07-04T06:00:28;3.13;;;0.93;;
65717;SDS011;52445;52.466;-1.016;2022-07-04T06:02:55;1.65;;;0.93;;
65717;SDS011;52445;52.466;-1.016;2022-07-04T06:05:21;1.38;;;1.10;;
65717;SDS011;52445;52.466;-1.016;2022-07-04T06:07:48;3.65;;;0.88;;
65717;SDS011;52445;52.466;-1.016;2022-07-04T06:10:15;1.75;;;0.60;;
65717;SDS011;52445;52.466;-1.016;2022-07-04T06:12:42;2.55;;;0.85;;
65717;SDS011;52445;52.466;-1.016;2022-07-04T06:15:08;1.75;;;1.17;;
65717;SDS011;52445;52.466;-1.016;2022-07-04T06:17:36;1.65;;;0.60;;
65717;SDS011;52445;52.466;-1.016;2022-07-04T06:20:03;3.15;;;0.70;;
65717;SDS011;52445;52.466;-1.016;2022-07-04T06:22:38;2.05;;;0.70;;
65717;SDS011;52445;52.466;-1.016;2022-07-04T06:25:11;2.45;;;0.57;;
65717;SDS011;52445;52.466;-1.016;2022-07-04T06:27:40;5.10;;;0.50;;
65717;SDS011;52445;52.466;-1.016;2022-07-04T06:30:08;3.03;;;1.05;;
65717;SDS011;52445;52.466;-1.016;2022-07-04T06:32:52;2.47;;;0.80;;
65717;SDS011;52445;52.466;-1.016;2022-07-04T06:35:22;2.15;;;0.93;;
65717;SDS011;52445;52.466;-1.016;2022-07-04T06:38:10;1.73;;;0.90;;
65717;SDS011;52445;52.466;-1.016;2022-07-04T06:40:39;1.48;;;0.73;;
65717;SDS011;52445;52.466;-1.016;2022-07-04T06:43:06;4.35;;;1.67;;
65717;SDS011;52445;52.466;-1.016;2022-07-04T06:45:33;1.77;;;0.90;;
65717;SDS011;52445;52.466;-1.016;2022-07-04T06:48:01;2.65;;;0.80;;
65717;SDS011;52445;52.466;-1.016;2022-07-04T06:50:30;2.50;;;0.73;;
65717;SDS011;52445;52.466;-1.016;2022-07-04T06:53:07;3.15;;;1.13;;
65717;SDS011;52445;52.466;-1.016;2022-07-04T06:55:35;1.35;;;0.85;;
65717;SDS011;52445;52.466;-1.016;2022-07-04T06:58:05;1.70;;;1.08;;
65717;SDS011;52445;52.466;-1.016;2022-07-04T07:00:34;3.38;;;0.70;;
65717;SDS011;52445;52.466;-1.016;2022-07-04T07:03:01;1.95;;;0.77;;
65717;SDS011;52445;52.466;-1.016;2022-07-04T07:05:28;1.02;;;0.73;;
65717;SDS011;52445;52.466;-1.016;2022-07-04T07:08:16;1.52;;;0.70;;
65717;SDS011;52445;52.466;-1.016;2022-07-04T07:10:42;1.30;;;0.82;;
65717;SDS011;52445;52.466;-1.016;2022-07-04T07:13:09;1.30;;;0.88;;
65717;SDS011;52445;52.466;-1.016;2022-07-04T07:15:36;2.97;;;0.75;;
65717;SDS011;52445;52.466;-1.016;2022-07-04T07:18:03;2.13;;;0.90;;
65717;SDS011;52445;52.466;-1.016;2022-07-04T07:20:31;2.05;;;0.60;;
65717;SDS011;52445;52.466;-1.016;2022-07-04T07:22:58;3.33;;;0.75;;
65717;SDS011;52445;52.466;-1.016;2022-07-04T07:25:24;2.17;;;0.80;;
65717;SDS011;52445;52.466;-1.016;2022-07-04T07:27:51;2.65;;;0.60;;
65717;SDS011;52445;52.466;-1.016;2022-07-04T07:30:18;1.42;;;0.88;;
65717;SDS011;52445;52.466;-1.016;2022-07-04T07:32:44;1.45;;;0.82;;
65717;SDS011;52445;52.466;-1.016;2022-07-04T07:35:13;1.20;;;0.63;;
65717;SDS011;52445;52.466;-1.016;2022-07-04T07:37:41;1.92;;;0.60;;
65717;SDS011;52445;52.466;-1.016;2022-07-04T07:40:08;2.28;;;0.80;;
65717;SDS011;52445;52.466;-1.016;2022-07-04T07:42:35;1.58;;;0.70;;
65717;SDS011;52445;52.466;-1.016;2022-07-04T07:45:02;1.27;;;0.65;;
65717;SDS011;52445;52.466;-1.016;2022-07-04T07:47:30;1.10;;;0.60;;
65717;SDS011;52445;52.466;-1.016;2022-07-04T07:49:56;0.90;;;0.50;;
65717;SDS011;52445;52.466;-1.016;2022-07-04T07:52:23;1.77;;;0.98;;
65717;SDS011;52445;52.466;-1.016;2022-07-04T07:54:53;2.88;;;0.70;;
65717;SDS011;52445;52.466;-1.016;2022-07-04T07:57:28;2.63;;;0.60;;
65717;SDS011;52445;52.466;-1.016;2022-07-04T07:59:55;1.60;;;0.77;;
65717;SDS011;52445;52.466;-1.016;2022-07-04T08:02:22;1.77;;;0.90;;
65717;SDS011;52445;52.466;-1.016;2022-07-04T08:05:10;1.30;;;0.40;;
65717;SDS011;52445;52.466;-1.016;2022-07-04T08:07:37;3.45;;;0.85;;
65717;SDS011;52445;52.466;-1.016;2022-07-04T08:10:04;3.38;;;1.00;;
65717;SDS011;52445;52.466;-1.016;2022-07-04T08:12:31;1.60;;;1.00;;
65717;SDS011;52445;52.466;-1.016;2022-07-04T08:14:58;1.98;;;0.80;;
65717;SDS011;52445;52.466;-1.016;2022-07-04T08:17:31;1.98;;;0.50;;
65717;SDS011;52445;52.466;-1.016;2022-07-04T08:19:58;1.23;;;0.60;;
65717;SDS011;52445;52.466;-1.016;2022-07-04T08:22:25;1.48;;;0.60;;
65717;SDS011;52445;52.466;-1.016;2022-07-04T08:24:52;0.90;;;0.60;;
65717;SDS011;52445;52.466;-1.016;2022-07-04T08:27:19;1.17;;;0.70;;
65717;SDS011;52445;52.466;-1.016;2022-07-04T08:29:46;2.05;;;0.70;;
65717;SDS011;52445;52.466;-1.016;2022-07-04T08:32:14;1.42;;;0.80;;
65717;SDS011;52445;52.466;-1.016;2022-07-04T08:34:40;2.13;;;0.60;;
65717;SDS011;52445;52.466;-1.016;2022-07-04T08:37:09;2.88;;;0.70;;
65717;SDS011;52445;52.466;-1.016;2022-07-04T08:39:36;1.92;;;0.32;;
65717;SDS011;52445;52.466;-1.016;2022-07-04T08:42:05;3.35;;;0.50;;
65717;SDS011;52445;52.466;-1.016;2022-07-04T08:44:38;2.17;;;0.50;;
65717;SDS011;52445;52.466;-1.016;2022-07-04T08:47:08;3.47;;;0.57;;
65717;SDS011;52445;52.466;-1.016;2022-07-04T08:49:41;3.13;;;1.20;;
65717;SDS011;52445;52.466;-1.016;2022-07-04T08:52:12;4.45;;;0.98;;
65717;SDS011;52445;52.466;-1.016;2022-07-04T08:54:44;2.75;;;0.63;;
65717;SDS011;52445;52.466;-1.016;2022-07-04T08:57:31;2.08;;;0.60;;
65717;SDS011;52445;52.466;-1.016;2022-07-04T09:00:18;1.65;;;0.70;;
65717;SDS011;52445;52.466;-1.016;2022-07-04T09:02:44;1.30;;;0.70;;
65717;SDS011;52445;52.466;-1.016;2022-07-04T09:05:11;1.27;;;0.60;;
65717;SDS011;52445;52.466;-1.016;2022-07-04T09:07:38;2.72;;;1.25;;
65717;SDS011;52445;52.466;-1.016;2022-07-04T09:10:05;2.03;;;0.70;;
65717;SDS011;52445;52.466;-1.016;2022-07-04T09:12:33;2.92;;;0.77;;
65717;SDS011;52445;52.466;-1.016;2022-07-04T09:15:20;1.45;;;0.90;;
65717;SDS011;52445;52.466;-1.016;2022-07-04T09:17:47;1.67;;;0.68;;
65717;SDS011;52445;52.466;-1.016;2022-07-04T09:20:15;2.15;;;0.63;;
65717;SDS011;52445;52.466;-1.016;2022-07-04T09:22:44;2.85;;;0.60;;
65717;SDS011;52445;52.466;-1.016;2022-07-04T09:25:12;4.43;;;0.60;;
65717;SDS011;52445;52.466;-1.016;2022-07-04T09:27:42;2.60;;;0.70;;
65717;SDS011;52445;52.466;-1.016;2022-07-04T09:30:12;1.20;;;0.47;;
65717;SDS011;52445;52.466;-1.016;2022-07-04T09:32:42;2.47;;;0.63;;
65717;SDS011;52445;52.466;-1.016;2022-07-04T09:35:20;1.75;;;1.17;;
65717;SDS011;52445;52.466;-1.016;2022-07-04T09:40:25;3.85;;;1.98;;
65717;SDS011;52445;52.466;-1.016;2022-07-04T09:43:11;2.50;;;1.20;;
65717;SDS011;52445;52.466;-1.016;2022-07-04T09:45:52;1.67;;;0.70;;
65717;SDS011;52445;52.466;-1.016;2022-07-04T09:48:20;2.28;;;1.08;;
65717;SDS011;52445;52.466;-1.016;2022-07-04T09:50:47;1.63;;;0.60;;
65717;SDS011;52445;52.466;-1.016;2022-07-04T09:53:14;1.75;;;0.60;;
65717;SDS011;52445;52.466;-1.016;2022-07-04T09:55:41;1.48;;;1.13;;
65717;SDS011;52445;52.466;-1.016;2022-07-04T09:58:08;1.20;;;0.88;;
65717;SDS011;52445;52.466;-1.016;2022-07-04T10:00:38;1.63;;;1.38;;
65717;SDS011;52445;52.466;-1.016;2022-07-04T10:08:39;2.75;;;0.80;;
65717;SDS011;52445;52.466;-1.016;2022-07-04T10:11:07;3.50;;;0.90;;
65717;SDS011;52445;52.466;-1.016;2022-07-04T10:13:37;1.27;;;0.75;;
65717;SDS011;52445;52.466;-1.016;2022-07-04T10:16:04;1.20;;;0.60;;
65717;SDS011;52445;52.466;-1.016;2022-07-04T10:18:34;1.08;;;0.52;;
65717;SDS011;52445;52.466;-1.016;2022-07-04T10:21:01;1.92;;;0.75;;
65717;SDS011;52445;52.466;-1.016;2022-07-04T10:23:28;2.22;;;1.00;;
65717;SDS011;52445;52.466;-1.016;2022-07-04T10:25:59;1.58;;;0.52;;
65717;SDS011;52445;52.466;-1.016;2022-07-04T10:28:25;1.67;;;0.75;;
65717;SDS011;52445;52.466;-1.016;2022-07-04T10:30:53;0.88;;;0.55;;
65717;SDS011;52445;52.466;-1.016;2022-07-04T10:33:23;2.63;;;1.52;;
65717;SDS011;52445;52.466;-1.016;2022-07-04T10:38:29;1.27;;;0.70;;
65717;SDS011;52445;52.466;-1.016;2022-07-04T10:41:05;2.55;;;0.68;;
65717;SDS011;52445;52.466;-1.016;2022-07-04T10:48:50;2.53;;;0.95;;
65717;SDS011;52445;52.466;-1.016;2022-07-04T10:54:18;1.60;;;0.70;;
65717;SDS011;52445;52.466;-1.016;2022-07-04T10:57:07;2.08;;;0.70;;
65717;SDS011;52445;52.466;-1.016;2022-07-04T11:00:01;2.80;;;2.60;;
65717;SDS011;52445;52.466;-1.016;2022-07-04T11:02:33;2.72;;;2.08;;
65717;SDS011;52445;52.466;-1.016;2022-07-04T11:05:04;2.45;;;1.98;;
65717;SDS011;52445;52.466;-1.016;2022-07-04T11:18:08;2.17;;;1.67;;
65717;SDS011;52445;52.466;-1.016;2022-07-04T11:25:42;1.55;;;0.63;;
65717;SDS011;52445;52.466;-1.016;2022-07-04T11:30:54;1.88;;;1.55;;
65717;SDS011;52445;52.466;-1.016;2022-07-04T11:38:50;2.65;;;2.10;;
65717;SDS011;52445;52.466;-1.016;2022-07-04T11:44:03;0.93;;;0.65;;
65717;SDS011;52445;52.466;-1.016;2022-07-04T11:47:00;1.50;;;0.57;;
65717;SDS011;52445;52.466;-1.016;2022-07-04T11:49:43;2.85;;;0.57;;
65717;SDS011;52445;52.466;-1.016;2022-07-04T11:52:13;2.15;;;0.57;;
65717;SDS011;52445;52.466;-1.016;2022-07-04T11:54:41;0.60;;;0.45;;
65717;SDS011;52445;52.466;-1.016;2022-07-04T11:57:24;3.17;;;1.05;;
65717;SDS011;52445;52.466;-1.016;2022-07-04T11:59:53;3.47;;;0.60;;
65717;SDS011;52445;52.466;-1.016;2022-07-04T12:02:22;1.25;;;0.50;;
65717;SDS011;52445;52.466;-1.016;2022-07-04T12:04:50;3.72;;;0.77;;
65717;SDS011;52445;52.466;-1.016;2022-07-04T12:07:18;3.92;;;0.60;;
65717;SDS011;52445;52.466;-1.016;2022-07-04T12:09:46;0.85;;;0.40;;
65717;SDS011;52445;52.466;-1.016;2022-07-04T12:12:14;1.40;;;0.90;;
65717;SDS011;52445;52.466;-1.016;2022-07-04T12:17:34;1.35;;;0.70;;
65717;SDS011;52445;52.466;-1.016;2022-07-04T12:20:03;1.75;;;0.50;;
65717;SDS011;52445;52.466;-1.016;2022-07-04T12:22:41;1.58;;;1.48;;
65717;SDS011;52445;52.466;-1.016;2022-07-04T12:25:26;2.28;;;2.13;;
65717;SDS011;52445;52.466;-1.016;2022-07-04T12:28:05;5.20;;;1.00;;
65717;SDS011;52445;52.466;-1.016;2022-07-04T12:30:36;1.77;;;1.05;;
65717;SDS011;52445;52.466;-1.016;2022-07-04T12:33:14;4.90;;;0.80;;
65717;SDS011;52445;52.466;-1.016;2022-07-04T12:41:06;1.55;;;0.60;;
65717;SDS011;52445;52.466;-1.016;2022-07-04T12:43:44;2.00;;;0.90;;
65717;SDS011;52445;52.466;-1.016;2022-07-04T12:46:19;2.20;;;1.17;;
65717;SDS011;52445;52.466;-1.016;2022-07-04T12:48:58;3.50;;;0.80;;
65717;SDS011;52445;52.466;-1.016;2022-07-04T12:51:27;2.47;;;0.73;;
65717;SDS011;52445;52.466;-1.016;2022-07-04T12:53:56;2.03;;;0.82;;
65717;SDS011;52445;52.466;-1.016;2022-07-04T12:59:04;1.42;;;0.85;;
65717;SDS011;52445;52.466;-1.016;2022-07-04T13:01:38;1.70;;;1.00;;
65717;SDS011;52445;52.466;-1.016;2022-07-04T13:04:06;2.78;;;1.05;;
65717;SDS011;52445;52.466;-1.016;2022-07-04T13:06:33;1.35;;;0.93;;
65717;SDS011;52445;52.466;-1.016;2022-07-04T13:09:01;2.60;;;1.85;;
65717;SDS011;52445;52.466;-1.016;2022-07-04T13:11:29;2.42;;;1.25;;
65717;SDS011;52445;52.466;-1.016;2022-07-04T13:14:15;1.23;;;0.90;;
65717;SDS011;52445;52.466;-1.016;2022-07-04T13:16:42;2.03;;;0.60;;
65717;SDS011;52445;52.466;-1.016;2022-07-04T13:19:09;2.67;;;1.30;;
65717;SDS011;52445;52.466;-1.016;2022-07-04T13:21:35;1.42;;;0.82;;
65717;SDS011;52445;52.466;-1.016;2022-07-04T13:24:03;1.40;;;0.50;;
65717;SDS011;52445;52.466;-1.016;2022-07-04T13:26:30;3.67;;;0.82;;
65717;SDS011;52445;52.466;-1.016;2022-07-04T13:28:58;0.80;;;0.60;;
65717;SDS011;52445;52.466;-1.016;2022-07-04T13:31:27;1.40;;;1.13;;
65717;SDS011;52445;52.466;-1.016;2022-07-04T13:33:54;1.67;;;0.70;;
65717;SDS011;52445;52.466;-1.016;2022-07-04T13:36:22;1.58;;;0.82;;
65717;SDS011;52445;52.466;-1.016;2022-07-04T13:38:48;2.17;;;1.02;;
65717;SDS011;52445;52.466;-1.016;2022-07-04T13:41:30;1.88;;;0.82;;
65717;SDS011;52445;52.466;-1.016;2022-07-04T13:43:59;1.10;;;0.88;;
65717;SDS011;52445;52.466;-1.016;2022-07-04T13:46:26;1.67;;;1.58;;
65717;SDS011;52445;52.466;-1.016;2022-07-04T13:48:53;1.40;;;1.20;;
65717;SDS011;52445;52.466;-1.016;2022-07-04T13:51:20;1.58;;;1.48;;
65717;SDS011;52445;52.466;-1.016;2022-07-04T13:53:46;1.20;;;0.52;;
65717;SDS011;52445;52.466;-1.016;2022-07-04T13:56:13;2.72;;;0.90;;
65717;SDS011;52445;52.466;-1.016;2022-07-04T13:58:43;1.15;;;1.02;;
65717;SDS011;52445;52.466;-1.016;2022-07-04T14:01:11;1.77;;;1.67;;
65717;SDS011;52445;52.466;-1.016;2022-07-04T14:03:38;1.25;;;1.08;;
65717;SDS011;52445;52.466;-1.016;2022-07-04T14:06:05;0.90;;;0.45;;
65717;SDS011;52445;52.466;-1.016;2022-07-04T14:08:32;1.42;;;0.77;;
65717;SDS011;52445;52.466;-1.016;2022-07-04T14:10:59;1.02;;;0.65;;
65717;SDS011;52445;52.466;-1.016;2022-07-04T14:13:25;2.30;;;1.23;;
65717;SDS011;52445;52.466;-1.016;2022-07-04T14:15:53;1.90;;;1.15;;
65717;SDS011;52445;52.466;-1.016;2022-07-04T14:18:21;3.22;;;0.95;;
65717;SDS011;52445;52.466;-1.016;2022-07-04T14:20:48;0.98;;;0.60;;
65717;SDS011;52445;52.466;-1.016;2022-07-04T14:23:16;1.92;;;0.85;;
65717;SDS011;52445;52.466;-1.016;2022-07-04T14:26:03;3.58;;;1.13;;
65717;SDS011;52445;52.466;-1.016;2022-07-04T14:28:31;0.93;;;0.80;;
65717;SDS011;52445;52.466;-1.016;2022-07-04T14:30:59;1.25;;;0.75;;
65717;SDS011;52445;52.466;-1.016;2022-07-04T14:33:26;1.50;;;0.60;;
65717;SDS011;52445;52.466;-1.016;2022-07-04T14:35:52;1.33;;;0.93;;
65717;SDS011;52445;52.466;-1.016;2022-07-04T14:38:19;1.15;;;0.68;;
65717;SDS011;52445;52.466;-1.016;2022-07-04T14:40:46;2.80;;;1.00;;
65717;SDS011;52445;52.466;-1.016;2022-07-04T14:45:45;1.42;;;0.98;;
65717;SDS011;52445;52.466;-1.016;2022-07-04T14:48:13;2.25;;;0.93;;
65717;SDS011;52445;52.466;-1.016;2022-07-04T14:50:40;1.13;;;0.88;;
65717;SDS011;52445;52.466;-1.016;2022-07-04T14:53:08;4.93;;;0.88;;
65717;SDS011;52445;52.466;-1.016;2022-07-04T14:55:37;2.60;;;0.75;;
65717;SDS011;52445;52.466;-1.016;2022-07-04T14:58:04;1.27;;;1.17;;
65717;SDS011;52445;52.466;-1.016;2022-07-04T15:00:30;1.52;;;0.77;;
65717;SDS011;52445;52.466;-1.016;2022-07-04T15:02:57;2.05;;;0.65;;
65717;SDS011;52445;52.466;-1.016;2022-07-04T15:05:24;1.48;;;0.60;;
65717;SDS011;52445;52.466;-1.016;2022-07-04T15:07:51;0.93;;;0.65;;
65717;SDS011;52445;52.466;-1.016;2022-07-04T15:10:20;1.90;;;0.63;;
65717;SDS011;52445;52.466;-1.016;2022-07-04T15:13:06;0.98;;;0.65;;
65717;SDS011;52445;52.466;-1.016;2022-07-04T15:15:33;4.43;;;2.47;;
65717;SDS011;52445;52.466;-1.016;2022-07-04T15:18:09;1.10;;;0.80;;
65717;SDS011;52445;52.466;-1.016;2022-07-04T15:20:35;2.80;;;0.68;;
65717;SDS011;52445;52.466;-1.016;2022-07-04T15:23:23;1.27;;;0.88;;
65717;SDS011;52445;52.466;-1.016;2022-07-04T15:26:10;3.20;;;0.85;;
65717;SDS011;52445;52.466;-1.016;2022-07-04T15:28:37;2.25;;;0.68;;
65717;SDS011;52445;52.466;-1.016;2022-07-04T15:31:03;1.67;;;0.73;;
65717;SDS011;52445;52.466;-1.016;2022-07-04T15:33:30;2.03;;;0.45;;
65717;SDS011;52445;52.466;-1.016;2022-07-04T15:35:57;1.08;;;0.63;;
65717;SDS011;52445;52.466;-1.016;2022-07-04T15:38:24;1.15;;;0.77;;
65717;SDS011;52445;52.466;-1.016;2022-07-04T15:40:51;0.98;;;0.70;;
65717;SDS011;52445;52.466;-1.016;2022-07-04T15:43:18;1.05;;;0.65;;
65717;SDS011;52445;52.466;-1.016;2022-07-04T15:45:44;1.50;;;0.88;;